sensor_id;sensor_type;location;lat;lon;timestamp;pressure;altitude;pressure_sealevel;temperature;humidity
41945;BME280;63122;52.424;13.458;2023-07-13T00:01:24;100625.78;;;22.50;75.56
41945;BME280;63122;52.424;13.458;2023-07-13T00:03:20;100622.56;;;22.41;76.29
41945;BME280;63122;52.424;13.458;2023-07-13T00:05:15;100627.81;;;22.36;77.86
41945;BME280;63122;52.424;13.458;2023-07-13T00:07:10;100630.41;;;22.31;78.28
41945;BME280;63122;52.424;13.458;2023-07-13T00:09:09;100640.19;;;22.25;79.06
41945;BME280;63122;52.424;13.458;2023-07-13T00:11:04;100634.75;;;22.01;81.51
41945;BME280;63122;52.424;13.458;2023-07-13T00:12:59;100632.84;;;21.90;82.60
41945;BME280;63122;52.424;13.458;2023-07-13T00:14:53;100633.41;;;21.80;83.02
41945;BME280;63122;52.424;13.458;2023-07-13T00:16:48;100637.59;;;21.76;83.88
41945;BME280;63122;52.424;13.458;2023-07-13T00:18:44;100637.22;;;21.72;84.66
41945;BME280;63122;52.424;13.458;2023-07-13T00:20:39;100639.31;;;21.70;84.78
41945;BME280;63122;52.424;13.458;2023-07-13T00:22:35;100639.38;;;21.64;85.29
41945;BME280;63122;52.424;13.458;2023-07-13T00:24:30;100640.41;;;21.63;85.81
41945;BME280;63122;52.424;13.458;2023-07-13T00:26:25;100649.50;;;21.62;86.34
41945;BME280;63122;52.424;13.458;2023-07-13T00:28:18;100643.91;;;21.63;86.38
41945;BME280;63122;52.424;13.458;2023-07-13T00:30:14;100649.16;;;21.58;86.81
41945;BME280;63122;52.424;13.458;2023-07-13T00:32:10;100651.25;;;21.56;87.48
41945;BME280;63122;52.424;13.458;2023-07-13T00:34:06;100648.56;;;21.56;87.69
41945;BME280;63122;52.424;13.458;2023-07-13T00:36:01;100643.19;;;21.56;88.70
41945;BME280;63122;52.424;13.458;2023-07-13T00:37:54;100642.06;;;21.64;89.27
41945;BME280;63122;52.424;13.458;2023-07-13T00:39:51;100639.91;;;21.72;88.96
41945;BME280;63122;52.424;13.458;2023-07-13T00:41:47;100642.03;;;21.82;89.12
41945;BME280;63122;52.424;13.458;2023-07-13T00:43:42;100647.09;;;21.91;88.08
41945;BME280;63122;52.424;13.458;2023-07-13T00:48:15;100639.91;;;22.03;87.07
41945;BME280;63122;52.424;13.458;2023-07-13T00:50:15;100638.97;;;22.09;87.46
41945;BME280;63122;52.424;13.458;2023-07-13T00:52:11;100645.31;;;22.15;86.47
41945;BME280;63122;52.424;13.458;2023-07-13T00:54:10;100636.22;;;22.16;86.33
41945;BME280;63122;52.424;13.458;2023-07-13T00:56:09;100647.31;;;22.20;86.64
41945;BME280;63122;52.424;13.458;2023-07-13T00:58:06;100651.63;;;22.21;86.81
41945;BME280;63122;52.424;13.458;2023-07-13T01:00:04;100661.56;;;22.20;87.13
41945;BME280;63122;52.424;13.458;2023-07-13T01:02:02;100654.41;;;22.14;86.73
41945;BME280;63122;52.424;13.458;2023-07-13T01:03:57;100664.00;;;22.10;87.09
41945;BME280;63122;52.424;13.458;2023-07-13T01:05:53;100656.97;;;22.09;87.83
41945;BME280;63122;52.424;13.458;2023-07-13T01:07:49;100654.03;;;22.10;88.08
41945;BME280;63122;52.424;13.458;2023-07-13T01:09:46;100651.59;;;22.09;87.42
41945;BME280;63122;52.424;13.458;2023-07-13T01:11:44;100651.44;;;22.04;87.83
41945;BME280;63122;52.424;13.458;2023-07-13T01:13:37;100652.16;;;21.99;88.14
41945;BME280;63122;52.424;13.458;2023-07-13T01:15:38;100654.91;;;21.92;87.50
41945;BME280;63122;52.424;13.458;2023-07-13T01:17:33;100658.28;;;21.88;88.19
41945;BME280;63122;52.424;13.458;2023-07-13T01:19:34;100651.72;;;21.83;88.78
41945;BME280;63122;52.424;13.458;2023-07-13T01:21:34;100653.81;;;21.81;89.12
41945;BME280;63122;52.424;13.458;2023-07-13T01:23:28;100655.91;;;21.79;89.89
41945;BME280;63122;52.424;13.458;2023-07-13T01:25:24;100652.44;;;21.79;90.61
41945;BME280;63122;52.424;13.458;2023-07-13T01:27:20;100654.06;;;21.80;90.02
41945;BME280;63122;52.424;13.458;2023-07-13T01:29:17;100652.19;;;21.80;91.30
41945;BME280;63122;52.424;13.458;2023-07-13T01:31:13;100656.06;;;21.84;91.21
41945;BME280;63122;52.424;13.458;2023-07-13T01:33:08;100655.25;;;21.84;90.84
41945;BME280;63122;52.424;13.458;2023-07-13T01:35:02;100653.38;;;21.84;91.00
41945;BME280;63122;52.424;13.458;2023-07-13T01:37:00;100651.50;;;21.85;91.00
41945;BME280;63122;52.424;13.458;2023-07-13T01:38:55;100648.25;;;21.83;91.49
41945;BME280;63122;52.424;13.458;2023-07-13T01:40:51;100647.66;;;21.81;91.46
41945;BME280;63122;52.424;13.458;2023-07-13T01:42:43;100645.19;;;21.79;91.87
41945;BME280;63122;52.424;13.458;2023-07-13T01:44:39;100653.22;;;21.79;91.54
41945;BME280;63122;52.424;13.458;2023-07-13T01:46:34;100655.34;;;21.77;91.46
41945;BME280;63122;52.424;13.458;2023-07-13T01:48:29;100646.22;;;21.78;92.03
41945;BME280;63122;52.424;13.458;2023-07-13T01:50:25;100641.44;;;21.80;91.98
41945;BME280;63122;52.424;13.458;2023-07-13T01:52:20;100640.06;;;21.78;91.91
41945;BME280;63122;52.424;13.458;2023-07-13T01:54:15;100644.00;;;21.75;91.75
41945;BME280;63122;52.424;13.458;2023-07-13T01:56:11;100650.03;;;21.70;92.17
41945;BME280;63122;52.424;13.458;2023-07-13T01:58:05;100644.34;;;20.85;96.03
41945;BME280;63122;52.424;13.458;2023-07-13T02:00:03;100653.50;;;20.46;100.00
41945;BME280;63122;52.424;13.458;2023-07-13T02:01:58;100650.47;;;20.42;100.00
41945;BME280;63122;52.424;13.458;2023-07-13T02:03:54;100643.34;;;20.29;100.00
41945;BME280;63122;52.424;13.458;2023-07-13T02:05:49;100644.44;;;20.14;100.00
41945;BME280;63122;52.424;13.458;2023-07-13T02:07:47;100646.66;;;19.92;100.00
41945;BME280;63122;52.424;13.458;2023-07-13T02:09:40;100651.81;;;19.80;100.00
41945;BME280;63122;52.424;13.458;2023-07-13T02:11:36;100653.56;;;19.61;100.00
41945;BME280;63122;52.424;13.458;2023-07-13T02:13:31;100653.91;;;19.71;100.00
41945;BME280;63122;52.424;13.458;2023-07-13T02:15:27;100656.53;;;19.92;100.00
41945;BME280;63122;52.424;13.458;2023-07-13T02:17:22;100647.13;;;20.14;100.00
41945;BME280;63122;52.424;13.458;2023-07-13T02:19:15;100639.63;;;20.30;100.00
41945;BME280;63122;52.424;13.458;2023-07-13T02:21:10;100627.44;;;20.34;100.00
41945;BME280;63122;52.424;13.458;2023-07-13T02:23:08;100621.59;;;20.44;100.00
41945;BME280;63122;52.424;13.458;2023-07-13T02:25:04;100628.16;;;20.48;100.00
41945;BME280;63122;52.424;13.458;2023-07-13T02:26:57;100628.94;;;20.49;100.00
41945;BME280;63122;52.424;13.458;2023-07-13T02:28:52;100625.84;;;20.52;100.00
41945;BME280;63122;52.424;13.458;2023-07-13T02:30:47;100621.91;;;20.54;100.00
41945;BME280;63122;52.424;13.458;2023-07-13T02:32:42;100621.09;;;20.54;100.00
41945;BME280;63122;52.424;13.458;2023-07-13T02:34:40;100631.88;;;20.47;100.00
41945;BME280;63122;52.424;13.458;2023-07-13T02:36:34;100634.75;;;20.46;100.00
41945;BME280;63122;52.424;13.458;2023-07-13T02:38:31;100635.19;;;20.42;100.00
41945;BME280;63122;52.424;13.458;2023-07-13T02:40:25;100646.75;;;20.43;100.00
41945;BME280;63122;52.424;13.458;2023-07-13T02:42:21;100639.75;;;20.42;100.00
41945;BME280;63122;52.424;13.458;2023-07-13T02:44:14;100637.81;;;20.49;100.00
41945;BME280;63122;52.424;13.458;2023-07-13T02:46:10;100651.97;;;20.56;100.00
41945;BME280;63122;52.424;13.458;2023-07-13T02:48:05;100646.78;;;20.62;100.00
41945;BME280;63122;52.424;13.458;2023-07-13T02:50:00;100651.34;;;20.61;100.00
41945;BME280;63122;52.424;13.458;2023-07-13T02:51:56;100651.94;;;20.63;100.00
41945;BME280;63122;52.424;13.458;2023-07-13T02:53:54;100658.97;;;20.57;100.00
41945;BME280;63122;52.424;13.458;2023-07-13T02:55:50;100653.63;;;20.57;100.00
41945;BME280;63122;52.424;13.458;2023-07-13T02:57:43;100660.63;;;20.58;100.00
41945;BME280;63122;52.424;13.458;2023-07-13T02:59:38;100659.38;;;20.61;100.00
41945;BME280;63122;52.424;13.458;2023-07-13T03:01:34;100663.09;;;20.60;100.00
41945;BME280;63122;52.424;13.458;2023-07-13T03:03:27;100654.66;;;20.56;100.00
41945;BME280;63122;52.424;13.458;2023-07-13T03:05:23;100667.03;;;20.57;100.00
41945;BME280;63122;52.424;13.458;2023-07-13T03:07:18;100669.69;;;20.57;100.00
41945;BME280;63122;52.424;13.458;2023-07-13T03:09:16;100664.97;;;20.27;100.00
41945;BME280;63122;52.424;13.458;2023-07-13T03:11:14;100666.41;;;20.30;100.00
41945;BME280;63122;52.424;13.458;2023-07-13T03:13:07;100666.56;;;20.35;100.00
41945;BME280;63122;52.424;13.458;2023-07-13T03:15:03;100661.63;;;20.39;100.00
41945;BME280;63122;52.424;13.458;2023-07-13T03:16:58;100665.75;;;20.35;100.00
41945;BME280;63122;52.424;13.458;2023-07-13T03:19:00;100666.19;;;20.32;100.00
41945;BME280;63122;52.424;13.458;2023-07-13T03:20:56;100668.59;;;20.08;100.00
41945;BME280;63122;52.424;13.458;2023-07-13T03:22:49;100673.06;;;19.75;100.00
41945;BME280;63122;52.424;13.458;2023-07-13T03:24:46;100673.09;;;19.62;100.00
41945;BME280;63122;52.424;13.458;2023-07-13T03:26:42;100676.19;;;19.65;100.00
41945;BME280;63122;52.424;13.458;2023-07-13T03:28:37;100678.25;;;19.63;100.00
41945;BME280;63122;52.424;13.458;2023-07-13T03:30:33;100681.59;;;19.45;100.00
41945;BME280;63122;52.424;13.458;2023-07-13T03:32:28;100675.69;;;19.23;100.00
41945;BME280;63122;52.424;13.458;2023-07-13T03:34:23;100675.72;;;19.09;100.00
41945;BME280;63122;52.424;13.458;2023-07-13T03:36:21;100671.78;;;19.12;100.00
41945;BME280;63122;52.424;13.458;2023-07-13T03:38:16;100674.88;;;19.16;100.00
41945;BME280;63122;52.424;13.458;2023-07-13T03:40:15;100676.09;;;19.20;100.00
41945;BME280;63122;52.424;13.458;2023-07-13T03:42:10;100679.38;;;19.22;100.00
41945;BME280;63122;52.424;13.458;2023-07-13T03:44:05;100683.09;;;19.21;100.00
41945;BME280;63122;52.424;13.458;2023-07-13T03:46:00;100684.34;;;19.11;100.00
41945;BME280;63122;52.424;13.458;2023-07-13T03:47:56;100680.84;;;19.11;100.00
41945;BME280;63122;52.424;13.458;2023-07-13T03:49:48;100685.97;;;19.19;100.00
41945;BME280;63122;52.424;13.458;2023-07-13T03:51:44;100687.81;;;19.25;100.00
41945;BME280;63122;52.424;13.458;2023-07-13T03:53:43;100697.06;;;19.30;100.00
41945;BME280;63122;52.424;13.458;2023-07-13T03:55:39;100697.66;;;19.32;100.00
41945;BME280;63122;52.424;13.458;2023-07-13T03:57:34;100695.41;;;19.28;100.00
41945;BME280;63122;52.424;13.458;2023-07-13T03:59:31;100692.56;;;19.30;100.00
41945;BME280;63122;52.424;13.458;2023-07-13T04:01:24;100691.28;;;19.26;100.00
41945;BME280;63122;52.424;13.458;2023-07-13T04:03:20;100692.97;;;19.27;100.00
41945;BME280;63122;52.424;13.458;2023-07-13T04:05:13;100701.19;;;19.25;100.00
41945;BME280;63122;52.424;13.458;2023-07-13T04:07:08;100701.59;;;19.22;100.00
41945;BME280;63122;52.424;13.458;2023-07-13T04:09:03;100698.75;;;19.17;100.00
41945;BME280;63122;52.424;13.458;2023-07-13T04:11:02;100705.13;;;19.09;100.00
41945;BME280;63122;52.424;13.458;2023-07-13T04:12:55;100708.22;;;19.13;100.00
41945;BME280;63122;52.424;13.458;2023-07-13T04:14:50;100707.78;;;19.09;100.00
41945;BME280;63122;52.424;13.458;2023-07-13T04:16:46;100702.63;;;19.08;100.00
41945;BME280;63122;52.424;13.458;2023-07-13T04:18:41;100697.50;;;19.06;100.00
41945;BME280;63122;52.424;13.458;2023-07-13T04:20:34;100710.03;;;19.12;100.00
41945;BME280;63122;52.424;13.458;2023-07-13T04:22:30;100704.47;;;19.21;100.00
41945;BME280;63122;52.424;13.458;2023-07-13T04:24:25;100704.66;;;19.26;100.00
41945;BME280;63122;52.424;13.458;2023-07-13T04:26:23;100710.25;;;19.24;100.00
41945;BME280;63122;52.424;13.458;2023-07-13T04:28:19;100716.44;;;19.18;100.00
41945;BME280;63122;52.424;13.458;2023-07-13T04:30:11;100713.53;;;19.20;100.00
41945;BME280;63122;52.424;13.458;2023-07-13T04:32:08;100713.53;;;19.20;100.00
41945;BME280;63122;52.424;13.458;2023-07-13T04:34:03;100709.63;;;19.16;100.00
41945;BME280;63122;52.424;13.458;2023-07-13T04:35:59;100714.78;;;19.17;100.00
41945;BME280;63122;52.424;13.458;2023-07-13T04:37:54;100721.97;;;19.23;100.00
41945;BME280;63122;52.424;13.458;2023-07-13T04:39:49;100716.38;;;19.25;100.00
41945;BME280;63122;52.424;13.458;2023-07-13T04:41:47;100721.97;;;19.17;100.00
41945;BME280;63122;52.424;13.458;2023-07-13T04:43:42;100719.91;;;19.12;100.00
41945;BME280;63122;52.424;13.458;2023-07-13T04:45:35;100724.63;;;19.10;100.00
41945;BME280;63122;52.424;13.458;2023-07-13T04:47:31;100730.19;;;19.02;100.00
41945;BME280;63122;52.424;13.458;2023-07-13T04:49:26;100736.53;;;18.94;100.00
41945;BME280;63122;52.424;13.458;2023-07-13T04:51:21;100733.69;;;18.95;100.00
41945;BME280;63122;52.424;13.458;2023-07-13T04:53:16;100736.34;;;18.95;100.00
41945;BME280;63122;52.424;13.458;2023-07-13T04:55:12;100732.84;;;18.95;100.00
41945;BME280;63122;52.424;13.458;2023-07-13T04:57:10;100725.44;;;18.97;100.00
41945;BME280;63122;52.424;13.458;2023-07-13T04:59:05;100733.28;;;19.05;100.00
41945;BME280;63122;52.424;13.458;2023-07-13T05:01:00;100733.91;;;19.14;100.00
41945;BME280;63122;52.424;13.458;2023-07-13T05:02:56;100740.28;;;19.13;100.00
41945;BME280;63122;52.424;13.458;2023-07-13T05:04:49;100748.50;;;19.18;100.00
41945;BME280;63122;52.424;13.458;2023-07-13T05:06:45;100741.53;;;19.17;100.00
41945;BME280;63122;52.424;13.458;2023-07-13T05:08:40;100747.25;;;19.21;100.00
41945;BME280;63122;52.424;13.458;2023-07-13T05:10:33;100745.41;;;19.14;100.00
41945;BME280;63122;52.424;13.458;2023-07-13T05:12:31;100743.16;;;19.11;100.00
41945;BME280;63122;52.424;13.458;2023-07-13T05:14:26;100739.25;;;19.14;100.00
41945;BME280;63122;52.424;13.458;2023-07-13T05:16:19;100743.16;;;19.18;100.00
41945;BME280;63122;52.424;13.458;2023-07-13T05:18:14;100740.25;;;19.20;100.00
41945;BME280;63122;52.424;13.458;2023-07-13T05:20:10;100742.53;;;19.23;100.00
41945;BME280;63122;52.424;13.458;2023-07-13T05:22:02;100746.66;;;19.19;100.00
41945;BME280;63122;52.424;13.458;2023-07-13T05:23:58;100742.13;;;19.19;100.00
41945;BME280;63122;52.424;13.458;2023-07-13T05:26:13;100745.19;;;19.23;100.00
41945;BME280;63122;52.424;13.458;2023-07-13T05:28:11;100745.63;;;19.26;100.00
41945;BME280;63122;52.424;13.458;2023-07-13T05:30:07;100752.19;;;19.31;100.00
41945;BME280;63122;52.424;13.458;2023-07-13T05:32:05;100743.31;;;19.37;100.00
41945;BME280;63122;52.424;13.458;2023-07-13T05:33:58;100744.78;;;19.39;100.00
41945;BME280;63122;52.424;13.458;2023-07-13T05:35:54;100749.09;;;19.40;100.00
41945;BME280;63122;52.424;13.458;2023-07-13T05:37:49;100753.00;;;19.38;100.00
41945;BME280;63122;52.424;13.458;2023-07-13T05:39:45;100761.25;;;19.36;100.00
41945;BME280;63122;52.424;13.458;2023-07-13T05:41:41;100753.59;;;19.40;100.00
41945;BME280;63122;52.424;13.458;2023-07-13T05:43:36;100756.28;;;19.47;100.00
41945;BME280;63122;52.424;13.458;2023-07-13T05:45:32;100754.03;;;19.50;100.00
41945;BME280;63122;52.424;13.458;2023-07-13T05:47:27;100756.28;;;19.53;100.00
41945;BME280;63122;52.424;13.458;2023-07-13T05:49:23;100755.47;;;19.46;100.00
41945;BME280;63122;52.424;13.458;2023-07-13T05:51:19;100755.44;;;19.53;100.00
41945;BME280;63122;52.424;13.458;2023-07-13T05:53:15;100760.16;;;19.57;100.00
41945;BME280;63122;52.424;13.458;2023-07-13T05:55:10;100760.16;;;19.64;100.00
41945;BME280;63122;52.424;13.458;2023-07-13T05:57:04;100759.56;;;19.55;100.00
41945;BME280;63122;52.424;13.458;2023-07-13T05:59:02;100758.34;;;19.51;100.00
41945;BME280;63122;52.424;13.458;2023-07-13T06:01:03;100752.38;;;19.49;100.00
41945;BME280;63122;52.424;13.458;2023-07-13T06:03:00;100751.94;;;19.52;100.00
41945;BME280;63122;52.424;13.458;2023-07-13T06:04:55;100756.06;;;19.55;100.00
41945;BME280;63122;52.424;13.458;2023-07-13T06:06:51;100760.81;;;19.46;100.00
41945;BME280;63122;52.424;13.458;2023-07-13T06:08:46;100757.13;;;19.47;100.00
41945;BME280;63122;52.424;13.458;2023-07-13T06:10:42;100752.19;;;19.44;100.00
41945;BME280;63122;52.424;13.458;2023-07-13T06:12:37;100753.41;;;19.55;100.00
41945;BME280;63122;52.424;13.458;2023-07-13T06:14:35;100760.34;;;19.69;100.00
41945;BME280;63122;52.424;13.458;2023-07-13T06:16:30;100757.44;;;19.78;100.00
41945;BME280;63122;52.424;13.458;2023-07-13T06:18:26;100758.03;;;19.86;100.00
41945;BME280;63122;52.424;13.458;2023-07-13T06:20:18;100765.63;;;19.90;100.00
41945;BME280;63122;52.424;13.458;2023-07-13T06:22:13;100751.22;;;19.97;100.00
41945;BME280;63122;52.424;13.458;2023-07-13T06:24:09;100757.78;;;20.02;100.00
41945;BME280;63122;52.424;13.458;2023-07-13T06:26:05;100755.09;;;20.08;100.00
41945;BME280;63122;52.424;13.458;2023-07-13T06:27:58;100762.09;;;20.09;100.00
41945;BME280;63122;52.424;13.458;2023-07-13T06:29:56;100756.16;;;20.00;100.00
41945;BME280;63122;52.424;13.458;2023-07-13T06:31:51;100749.34;;;20.05;100.00
41945;BME280;63122;52.424;13.458;2023-07-13T06:33:46;100752.41;;;20.08;100.00
41945;BME280;63122;52.424;13.458;2023-07-13T06:35:42;100742.50;;;20.09;100.00
41945;BME280;63122;52.424;13.458;2023-07-13T06:37:38;100744.38;;;20.15;100.00
41945;BME280;63122;52.424;13.458;2023-07-13T06:39:33;100750.31;;;20.17;100.00
41945;BME280;63122;52.424;13.458;2023-07-13T06:41:28;100758.72;;;20.21;100.00
41945;BME280;63122;52.424;13.458;2023-07-13T06:43:25;100755.84;;;20.29;100.00
41945;BME280;63122;52.424;13.458;2023-07-13T06:45:20;100758.72;;;20.27;100.00
41945;BME280;63122;52.424;13.458;2023-07-13T06:47:15;100760.78;;;20.25;100.00
41945;BME280;63122;52.424;13.458;2023-07-13T06:49:11;100765.19;;;20.13;100.00
41945;BME280;63122;52.424;13.458;2023-07-13T06:51:06;100762.50;;;20.13;100.00
41945;BME280;63122;52.424;13.458;2023-07-13T06:52:59;100765.19;;;20.13;100.00
41945;BME280;63122;52.424;13.458;2023-07-13T06:54:54;100767.03;;;20.12;100.00
41945;BME280;63122;52.424;13.458;2023-07-13T06:56:50;100766.78;;;20.21;100.00
41945;BME280;63122;52.424;13.458;2023-07-13T06:58:45;100770.47;;;20.26;100.00
41945;BME280;63122;52.424;13.458;2023-07-13T07:00:43;100770.06;;;20.23;100.00
41945;BME280;63122;52.424;13.458;2023-07-13T07:02:38;100764.09;;;20.21;100.00
41945;BME280;63122;52.424;13.458;2023-07-13T07:04:34;100761.66;;;20.12;100.00
41945;BME280;63122;52.424;13.458;2023-07-13T07:06:29;100758.78;;;20.14;100.00
41945;BME280;63122;52.424;13.458;2023-07-13T07:08:24;100758.19;;;20.12;100.00
41945;BME280;63122;52.424;13.458;2023-07-13T07:10:20;100762.88;;;20.17;100.00
41945;BME280;63122;52.424;13.458;2023-07-13T07:12:15;100765.97;;;20.20;100.00
41945;BME280;63122;52.424;13.458;2023-07-13T07:14:11;100766.56;;;20.22;100.00
41945;BME280;63122;52.424;13.458;2023-07-13T07:16:08;100768.00;;;20.25;100.00
41945;BME280;63122;52.424;13.458;2023-07-13T07:18:04;100769.22;;;20.29;100.00
41945;BME280;63122;52.424;13.458;2023-07-13T07:19:59;100763.00;;;20.35;100.00
41945;BME280;63122;52.424;13.458;2023-07-13T07:21:52;100775.78;;;20.33;98.76
41945;BME280;63122;52.424;13.458;2023-07-13T07:23:47;100783.41;;;20.36;99.92
41945;BME280;63122;52.424;13.458;2023-07-13T07:25:43;100770.00;;;20.36;98.61
41945;BME280;63122;52.424;13.458;2023-07-13T07:27:38;100775.75;;;20.40;99.57
41945;BME280;63122;52.424;13.458;2023-07-13T07:29:37;100766.19;;;20.51;100.00
41945;BME280;63122;52.424;13.458;2023-07-13T07:31:40;100763.28;;;20.59;99.99
41945;BME280;63122;52.424;13.458;2023-07-13T07:33:38;100762.00;;;20.62;99.34
41945;BME280;63122;52.424;13.458;2023-07-13T07:35:33;100760.13;;;20.69;100.00
41945;BME280;63122;52.424;13.458;2023-07-13T07:37:28;100772.00;;;20.80;100.00
41945;BME280;63122;52.424;13.458;2023-07-13T07:39:27;100767.44;;;20.87;100.00
41945;BME280;63122;52.424;13.458;2023-07-13T07:41:20;100773.19;;;20.91;94.97
41945;BME280;63122;52.424;13.458;2023-07-13T07:43:18;100764.94;;;20.92;97.15
41945;BME280;63122;52.424;13.458;2023-07-13T07:45:13;100771.72;;;20.95;99.21
41945;BME280;63122;52.424;13.458;2023-07-13T07:47:11;100773.13;;;20.97;99.87
41945;BME280;63122;52.424;13.458;2023-07-13T07:49:07;100773.56;;;20.94;95.49
41945;BME280;63122;52.424;13.458;2023-07-13T07:51:02;100777.69;;;20.97;96.24
41945;BME280;63122;52.424;13.458;2023-07-13T07:52:58;100771.28;;;20.98;95.05
41945;BME280;63122;52.424;13.458;2023-07-13T07:54:54;100775.38;;;21.00;97.11
41945;BME280;63122;52.424;13.458;2023-07-13T07:57:09;100778.91;;;21.01;94.61
41945;BME280;63122;52.424;13.458;2023-07-13T07:59:07;100768.22;;;20.94;91.49
41945;BME280;63122;52.424;13.458;2023-07-13T08:01:06;100767.72;;;21.04;94.51
41945;BME280;63122;52.424;13.458;2023-07-13T08:03:04;100778.56;;;21.16;92.14
41945;BME280;63122;52.424;13.458;2023-07-13T08:05:02;100781.13;;;21.29;91.09
41945;BME280;63122;52.424;13.458;2023-07-13T08:07:01;100781.28;;;21.35;89.70
41945;BME280;63122;52.424;13.458;2023-07-13T08:08:56;100780.63;;;21.39;91.13
41945;BME280;63122;52.424;13.458;2023-07-13T08:10:53;100782.09;;;21.35;91.10
41945;BME280;63122;52.424;13.458;2023-07-13T08:13:06;100784.84;;;21.28;86.53
41945;BME280;63122;52.424;13.458;2023-07-13T08:15:05;100779.41;;;21.35;89.43
41945;BME280;63122;52.424;13.458;2023-07-13T08:17:01;100783.31;;;21.39;87.03
41945;BME280;63122;52.424;13.458;2023-07-13T08:19:00;100788.50;;;21.34;86.62
41945;BME280;63122;52.424;13.458;2023-07-13T08:20:56;100785.53;;;21.42;88.40
41945;BME280;63122;52.424;13.458;2023-07-13T08:22:52;100783.53;;;21.56;90.22
41945;BME280;63122;52.424;13.458;2023-07-13T08:24:47;100780.72;;;21.51;88.88
41945;BME280;63122;52.424;13.458;2023-07-13T08:26:49;100781.53;;;21.52;92.50
41945;BME280;63122;52.424;13.458;2023-07-13T08:28:47;100780.63;;;21.65;89.84
41945;BME280;63122;52.424;13.458;2023-07-13T08:30:45;100783.31;;;21.65;89.59
41945;BME280;63122;52.424;13.458;2023-07-13T08:32:43;100791.06;;;21.73;87.03
41945;BME280;63122;52.424;13.458;2023-07-13T08:34:46;100789.03;;;21.68;85.12
41945;BME280;63122;52.424;13.458;2023-07-13T08:36:43;100786.94;;;21.70;86.16
41945;BME280;63122;52.424;13.458;2023-07-13T08:38:38;100792.84;;;21.79;87.12
41945;BME280;63122;52.424;13.458;2023-07-13T08:40:34;100787.91;;;21.76;85.77
41945;BME280;63122;52.424;13.458;2023-07-13T08:42:36;100796.63;;;21.71;84.66
41945;BME280;63122;52.424;13.458;2023-07-13T08:44:40;100789.41;;;21.72;86.24
41945;BME280;63122;52.424;13.458;2023-07-13T08:46:42;100788.44;;;21.85;85.06
41945;BME280;63122;52.424;13.458;2023-07-13T08:48:42;100794.56;;;21.92;81.69
41945;BME280;63122;52.424;13.458;2023-07-13T08:50:47;100789.19;;;21.92;83.52
41945;BME280;63122;52.424;13.458;2023-07-13T08:53:02;100790.50;;;22.01;84.39
41945;BME280;63122;52.424;13.458;2023-07-13T08:55:05;100793.13;;;22.08;83.14
41945;BME280;63122;52.424;13.458;2023-07-13T08:57:10;100798.94;;;22.05;81.49
41945;BME280;63122;52.424;13.458;2023-07-13T08:59:13;100800.81;;;22.05;84.99
41945;BME280;63122;52.424;13.458;2023-07-13T09:01:14;100795.34;;;22.11;85.31
41945;BME280;63122;52.424;13.458;2023-07-13T09:03:18;100792.28;;;22.26;86.96
41945;BME280;63122;52.424;13.458;2023-07-13T09:05:17;100795.38;;;22.42;82.63
41945;BME280;63122;52.424;13.458;2023-07-13T09:07:23;100806.03;;;22.18;78.84
41945;BME280;63122;52.424;13.458;2023-07-13T09:09:31;100795.94;;;22.13;79.23
41945;BME280;63122;52.424;13.458;2023-07-13T09:11:42;100797.38;;;22.16;78.34
41945;BME280;63122;52.424;13.458;2023-07-13T09:13:49;100805.81;;;22.20;74.73
41945;BME280;63122;52.424;13.458;2023-07-13T09:15:48;100811.94;;;22.08;76.08
41945;BME280;63122;52.424;13.458;2023-07-13T09:17:48;100798.88;;;22.12;68.81
41945;BME280;63122;52.424;13.458;2023-07-13T09:19:48;100801.78;;;22.10;65.02
41945;BME280;63122;52.424;13.458;2023-07-13T09:21:44;100808.25;;;22.21;67.16
41945;BME280;63122;52.424;13.458;2023-07-13T09:23:43;100802.75;;;22.16;66.13
41945;BME280;63122;52.424;13.458;2023-07-13T09:25:39;100787.16;;;22.25;66.32
41945;BME280;63122;52.424;13.458;2023-07-13T09:27:43;100807.41;;;22.39;61.88
41945;BME280;63122;52.424;13.458;2023-07-13T09:29:44;100790.09;;;22.35;60.92
41945;BME280;63122;52.424;13.458;2023-07-13T09:31:44;100794.72;;;22.47;60.81
41945;BME280;63122;52.424;13.458;2023-07-13T09:33:41;100791.13;;;22.53;55.60
41945;BME280;63122;52.424;13.458;2023-07-13T09:35:37;100802.22;;;22.56;55.99
41945;BME280;63122;52.424;13.458;2023-07-13T09:37:32;100799.78;;;22.55;53.12
41945;BME280;63122;52.424;13.458;2023-07-13T09:39:31;100801.53;;;22.49;53.54
41945;BME280;63122;52.424;13.458;2023-07-13T09:41:35;100793.03;;;22.34;53.78
41945;BME280;63122;52.424;13.458;2023-07-13T09:43:33;100804.38;;;22.36;55.21
41945;BME280;63122;52.424;13.458;2023-07-13T09:45:30;100798.75;;;22.37;56.14
41945;BME280;63122;52.424;13.458;2023-07-13T09:47:27;100801.19;;;22.57;55.89
41945;BME280;63122;52.424;13.458;2023-07-13T09:49:24;100809.50;;;22.56;57.45
41945;BME280;63122;52.424;13.458;2023-07-13T09:51:19;100797.69;;;22.57;59.20
41945;BME280;63122;52.424;13.458;2023-07-13T09:53:17;100797.81;;;22.62;58.39
41945;BME280;63122;52.424;13.458;2023-07-13T09:55:27;100801.56;;;22.61;58.87
41945;BME280;63122;52.424;13.458;2023-07-13T09:57:24;100800.88;;;22.66;58.47
41945;BME280;63122;52.424;13.458;2023-07-13T09:59:42;100806.53;;;22.88;58.89
41945;BME280;63122;52.424;13.458;2023-07-13T10:01:40;100805.72;;;22.87;58.59